Home > Products > Valid Products > TAF

000
FTUS43 KDTX 250300 AAA
TAFDTW
TAF AMD
KDTW 250306Z 2503/2606 VRB03KT P6SM SKC
     FM251400 23008KT P6SM SCT050 BKN200=



000
FTUS43 KDTX 242300
TAFDTW
TAF
KDTW 242320Z 2500/2606 36005KT P6SM FEW060
     FM250200 VRB03KT P6SM SKC
     FM251400 23008KT P6SM SCT050 BKN200=



000
FTUS43 KDTX 242300
TAFFNT
TAF
KFNT 242320Z 2500/2524 02005KT P6SM FEW060
     FM250200 VRB03KT P6SM SKC
     FM251400 23008KT P6SM SCT050 BKN200=



000
FTUS43 KDTX 242300
TAFMBS
TAF
KMBS 242320Z 2500/2524 VRB03KT P6SM SKC
     FM251400 23008KT P6SM SCT050 BKN200=



000
FTUS43 KDTX 242300
TAFDET
TAF
KDET 242320Z 2500/2524 02005KT P6SM FEW060
     FM250200 VRB03KT P6SM SKC
     FM251400 23008KT P6SM SCT050 BKN200=



000
FTUS43 KDTX 242000 AAA
TAFDTW
TAF AMD
KDTW 242015Z 2420/2524 03010KT P6SM SCT060
     FM242300 VRB03KT P6SM SKC
     FM251400 23008KT P6SM SCT050 BKN200=



000
FTUS43 KDTX 241700
TAFMBS
TAF
KMBS 241727Z 2418/2518 36008KT P6SM SCT060
      TEMPO 2418/2420 BKN050
     FM242100 VRB03KT P6SM SKC
     FM251400 23010KT P6SM SCT050 BKN200=



000
FTUS43 KDTX 241700
TAFFNT
TAF
KFNT 241727Z 2418/2518 01006KT P6SM SCT060
     FM242100 VRB03KT P6SM SKC
     FM251400 23010KT P6SM SCT050 BKN200=



000
FTUS43 KDTX 241700
TAFDTW
TAF
KDTW 241727Z 2418/2524 02010KT P6SM SCT060
     FM242300 VRB03KT P6SM SKC
     FM251400 23008KT P6SM SCT050 BKN200=



000
FTUS43 KDTX 241700
TAFDET
TAF
KDET 241727Z 2418/2518 04008KT P6SM SCT060
     FM242300 VRB03KT P6SM SKC
     FM251400 23008KT P6SM SCT050 BKN200=



000
FTUS43 KDTX 241500 AAA
TAFDTW
TAF AMD
KDTW 241504Z 2415/2518 02008KT P6SM SCT060
     FM242300 12003KT P6SM SKC
     FM251400 22008KT P6SM SCT060 BKN200=



000
FTUS43 KDTX 241100
TAFFNT
TAF
KFNT 241121Z 2412/2512 01006KT P6SM SCT060
     FM242100 VRB03KT P6SM SKC=



000
FTUS43 KDTX 241100
TAFDET
TAF
KDET 241121Z 2412/2512 01007KT P6SM SKC
     FM241500 03008KT P6SM SCT060
     FM242300 12003KT P6SM SKC=



000
FTUS43 KDTX 241100
TAFDTW
TAF
KDTW 241121Z 2412/2518 35007KT P6SM SKC
     FM241500 02008KT P6SM SCT060
     FM242300 12003KT P6SM SKC
     FM251400 22008KT P6SM SCT060 BKN200=



000
FTUS43 KDTX 241100
TAFMBS
TAF
KMBS 241121Z 2412/2512 02008KT P6SM SCT060
     FM242100 VRB03KT P6SM SKC=



000
FTUS43 KDTX 240800 AAA
TAFDTW
TAF AMD
KDTW 240846Z 2409/2512 34006KT P6SM SKC
     FM241400 01007KT P6SM SCT050
     FM242100 33007KT P6SM FEW060
     FM250200 VRB03KT P6SM SKC=



000
FTUS43 KDTX 240500
TAFMBS
TAF
KMBS 240525Z 2406/2506 03007KT P6SM FEW035 BKN060
     FM240700 01006KT P6SM SKC
     FM241400 02007KT P6SM SCT050
     FM242100 33007KT P6SM FEW060
     FM250200 VRB03KT P6SM SKC=



000
FTUS43 KDTX 240500
TAFDTW
TAF
KDTW 240525Z 2406/2512 36007KT P6SM SCT050 BKN100
     FM240800 34006KT P6SM SKC
     FM241400 01007KT P6SM SCT050
     FM242100 33007KT P6SM FEW060
     FM250200 VRB03KT P6SM SKC=



000
FTUS43 KDTX 240500
TAFFNT
TAF
KFNT 240525Z 2406/2506 03007KT P6SM FEW035 BKN060
     FM240700 01006KT P6SM SKC
     FM241400 02007KT P6SM SCT050
     FM242100 33007KT P6SM FEW060
     FM250200 VRB03KT P6SM SKC=



000
FTUS43 KDTX 240500
TAFDET
TAF
KDET 240525Z 2406/2506 01007KT P6SM SCT050 BKN100
     FM240800 35006KT P6SM SKC
     FM241400 01007KT P6SM SCT050
     FM242100 33007KT P6SM FEW060
     FM250200 VRB03KT P6SM SKC=



000
FTUS43 KDTX 240200 AAA
TAFDTW
TAF AMD
KDTW 240218Z 2402/2506 36010KT P6SM FEW050 BKN100
     FM240600 34006KT P6SM SKC
     FM241400 01007KT P6SM SCT050
     FM242100 33007KT P6SM FEW060
     FM250200 VRB03KT P6SM SKC=



000
FTUS43 KDTX 232300
TAFFNT
TAF
KFNT 232320Z 2400/2424 01010KT P6SM SCT040
     FM240200 33006KT P6SM SKC
     FM241400 35007KT P6SM SCT045
     FM242100 31007KT P6SM FEW060=



000
FTUS43 KDTX 232300
TAFMBS
TAF
KMBS 232320Z 2400/2424 03010KT P6SM SCT045
     FM240200 34006KT P6SM SKC
     FM241400 33007KT P6SM SCT045
     FM242100 30007KT P6SM FEW060=



000
FTUS43 KDTX 232300
TAFDET
TAF
KDET 232320Z 2400/2424 36010KT P6SM FEW045
     FM240200 34006KT P6SM SKC
     FM241400 01007KT P6SM SCT050
     FM242100 33007KT P6SM FEW060=



000
FTUS43 KDTX 232300
TAFDTW
TAF
KDTW 232320Z 2400/2506 35010KT P6SM FEW045
     FM240200 34006KT P6SM SKC
     FM241400 01007KT P6SM SCT050
     FM242100 33007KT P6SM FEW060
     FM250200 VRB03KT P6SM SKC=



000
FTUS43 KDTX 232000 AAA
TAFDTW
TAF AMD
KDTW 232047Z 2321/2424 36013KT P6SM BKN040
     FM240000 35010KT P6SM FEW045
     FM240200 24006KT P6SM SKC
     FM241400 02007KT P6SM BKN060=



000
FTUS43 KDTX 231700
TAFDTW
TAF
KDTW 231733Z 2318/2424 36014KT P6SM BKN030
     FM232200 01010KT P6SM BKN040
     FM240200 35007KT P6SM SKC
     FM241400 02007KT P6SM BKN060=



000
FTUS43 KDTX 231700
TAFMBS
TAF
KMBS 231733Z 2318/2418 02015KT P6SM BKN040
     FM232200 04010KT P6SM SCT040
     FM240200 02005KT P6SM SKC
     FM241400 02007KT P6SM BKN060=



000
FTUS43 KDTX 231700
TAFFNT
TAF
KFNT 231733Z 2318/2418 01013KT P6SM BKN030
     FM232200 01011KT P6SM SCT040
     FM240200 36005KT P6SM SKC
     FM241400 02007KT P6SM BKN060=



000
FTUS43 KDTX 231700
TAFDET
TAF
KDET 231733Z 2318/2418 01014KT P6SM BKN030
     FM232200 01010KT P6SM BKN040
     FM240200 35007KT P6SM SKC
     FM241400 02007KT P6SM BKN060=



000
FTUS43 KDTX 231500 AAA
TAFDET
TAF AMD
KDET 231510Z 2315/2412 01013KT P6SM BKN020 OVC035
     FM231800 01014KT P6SM BKN035 OVC045
     FM232200 01010KT P6SM BKN060
     FM240200 35007KT P6SM SKC=



000
FTUS43 KDTX 231500 AAA
TAFDTW
TAF AMD
KDTW 231506Z 2315/2418 35013KT P6SM BKN020 OVC035
     FM231800 36014KT P6SM BKN035 OVC045
     FM232200 01010KT P6SM BKN060
     FM240200 35007KT P6SM SKC=



000
FTUS43 KDTX 231100
TAFDTW
TAF
KDTW 231123Z 2312/2418 35011KT P6SM BKN018 OVC024
     FM231400 36013KT P6SM BKN028 OVC035
     FM231700 36014KT P6SM SCT035 OVC045
     FM232200 01010KT P6SM BKN060
     FM240200 35007KT P6SM SKC=



000
FTUS43 KDTX 231100
TAFMBS
TAF
KMBS 231123Z 2312/2412 35011KT P6SM SCT018 OVC026
     FM231400 01014KT P6SM BKN030 OVC045
     FM231700 04015KT P6SM BKN060
     FM232200 04010KT P6SM SCT060
     FM240200 02005KT P6SM SKC=



000
FTUS43 KDTX 231100
TAFFNT
TAF
KFNT 231123Z 2312/2412 34011KT P6SM BKN016 OVC022
     FM231400 01014KT P6SM BKN024 OVC035
     FM231600 01013KT P6SM SCT035 OVC045
     FM232200 01011KT P6SM SCT060
     FM240200 36005KT P6SM SKC=



000
FTUS43 KDTX 231100
TAFDET
TAF
KDET 231123Z 2312/2412 36011KT P6SM BKN018 OVC024
     FM231400 01013KT P6SM BKN028 OVC035
     FM231700 01014KT P6SM SCT035 OVC045
     FM232200 01010KT P6SM BKN060
     FM240200 35007KT P6SM SKC=



000
FTUS43 KDTX 230800 AAA
TAFFNT
TAF AMD
KFNT 230832Z 2309/2406 36012KT P6SM BKN015 OVC022
     FM231600 01013KT P6SM SCT035 OVC045
     FM240100 36006KT P6SM SCT060=



000
FTUS43 KDTX 230800 AAA
TAFMBS
TAF AMD
KMBS 230832Z 2309/2406 01013KT P6SM BKN016 OVC022
     FM231400 36012KT P6SM SCT030 OVC040
     FM231700 04015KT P6SM BKN060
     FM240100 01006KT P6SM SCT060=



000
FTUS43 KDTX 230800 AAB
TAFDTW
TAF AMD
KDTW 230829Z 2308/2412 24008KT P6SM BKN035 OVC045
     FM231000 35011KT P6SM BKN028 OVC040
     FM231200 01012KT P6SM BKN020 OVC040
     FM231600 36013KT P6SM SCT035 OVC045
     FM240100 34008KT P6SM SCT060=



000
FTUS43 KDTX 230700 AAA
TAFDTW
TAF AMD
KDTW 230726Z 2307/2412 24008KT P6SM BKN035 OVC045
     FM231000 35011KT P6SM BKN028 OVC040
     FM231200 01012KT P6SM BKN020 OVC040
     FM231600 36013KT P6SM SCT035 OVC045
     FM240100 34008KT P6SM SCT060=



000
FTUS43 KDTX 230700 AAA
TAFDET
TAF AMD
KDET 230726Z 2307/2406 24008KT P6SM BKN035 OVC045
     FM231000 35011KT P6SM BKN028 OVC040
     FM231200 01012KT P6SM BKN020 OVC040
     FM231600 36013KT P6SM SCT035 OVC045
     FM240100 34008KT P6SM SCT060=



000
FTUS43 KDTX 230500
TAFDTW
TAF
KDTW 230521Z 2306/2412 24008KT P6SM BKN035 OVC045
      TEMPO 2306/2308 5SM TSRA BR BKN030 OVC040CB
     FM231000 35011KT P6SM BKN028 OVC040
     FM231200 01012KT P6SM BKN020 OVC040
     FM231600 36013KT P6SM SCT035 OVC045
     FM240100 34008KT P6SM SCT060=



000
FTUS43 KDTX 230500
TAFFNT
TAF
KFNT 230521Z 2306/2406 25008KT P6SM BKN035 OVC045
      TEMPO 2306/2307 6SM -SHRA BR BKN028 OVC035
     FM230800 36012KT P6SM OVC022
     FM231600 01013KT P6SM SCT035 OVC045
     FM240100 36006KT P6SM SCT060=



000
FTUS43 KDTX 230500
TAFMBS
TAF
KMBS 230521Z 2306/2406 01013KT P6SM SCT016 OVC022
     FM231400 36012KT P6SM SCT030 OVC040
     FM231700 04015KT P6SM BKN060
     FM240100 01006KT P6SM SCT060=



000
FTUS43 KDTX 230500
TAFDET
TAF
KDET 230521Z 2306/2406 24008KT P6SM BKN035 OVC045
      TEMPO 2306/2308 5SM TSRA BR BKN030 OVC040CB
     FM231000 35011KT P6SM BKN028 OVC040
     FM231200 01012KT P6SM BKN020 OVC040
     FM231600 36013KT P6SM SCT035 OVC045
     FM240100 34008KT P6SM SCT060=



000
FTUS43 KDTX 230200 AAA
TAFDTW
TAF AMD
KDTW 230248Z 2303/2406 21011KT P6SM SCT100 BKN200
     FM230300 24009KT P6SM SCT060 BKN100
      TEMPO 2307/2309 TSRA BKN035 OVC060CB
     FM230900 32011KT P6SM BKN020 OVC040
     FM231500 35013KT P6SM SCT020 BKN040
     FM232000 01011KT P6SM SCT040=



000
FTUS43 KDTX 222300
TAFMBS
TAF
KMBS 222320Z 2300/2324 22011KT P6SM FEW060 SCT100
     FM230200 26009KT P6SM SCT060 BKN100
      TEMPO 2304/2306 TSRA BKN035 OVC060CB
     FM230800 32011KT P6SM BKN020 OVC035
     FM231500 35013KT P6SM SCT020 BKN040
     FM231900 01012KT P6SM SCT040=



000
FTUS43 KDTX 222300
TAFFNT
TAF
KFNT 222320Z 2300/2324 22011KT P6SM FEW060 SCT100
     FM230200 25009KT P6SM SCT060 BKN100
      TEMPO 2305/2307 TSRA BKN035 OVC060CB
     FM230900 32011KT P6SM BKN020 OVC035
     FM231500 35013KT P6SM SCT020 BKN040
     FM232000 01012KT P6SM SCT040=



000
FTUS43 KDTX 222300
TAFDTW
TAF
KDTW 222320Z 2300/2406 22011KT P6SM FEW060 SCT100
     FM230300 24009KT P6SM SCT060 BKN100
      TEMPO 2307/2309 TSRA BKN035 OVC060CB
     FM231000 32011KT P6SM BKN020 OVC040
     FM231600 35013KT P6SM SCT020 BKN040
     FM232100 01011KT P6SM SCT040=



000
FTUS43 KDTX 222300
TAFDET
TAF
KDET 222320Z 2300/2324 22011KT P6SM FEW060 SCT100
     FM230300 24009KT P6SM SCT060 BKN100
      TEMPO 2307/2309 TSRA BKN035 OVC060CB
     FM231000 32011KT P6SM BKN020 OVC040
     FM231600 35013KT P6SM SCT020 BKN040
     FM232100 01011KT P6SM SCT040=



000
FTUS43 KDTX 222100 AAA
TAFDTW
TAF AMD
KDTW 222111Z 2221/2324 20012G18KT P6SM FEW200
     FM230000 23011KT P6SM FEW060 SCT100
     FM230300 25009KT P6SM SCT060 BKN100 PROB30 2306/2308 TSRA
      BKN035 OVC060CB
     FM231200 32012KT P6SM OVC020
     FM231600 35010KT P6SM OVC040=



000
FTUS43 KDTX 221700
TAFDTW
TAF
KDTW 221728Z 2218/2324 22011G17KT P6SM SKC
     FM230100 23012KT P6SM SCT060 BKN100 PROB30 2305/2308 TSRA
      BKN035 OVC060CB
     FM231200 32012KT P6SM OVC020
     FM231600 35010KT P6SM OVC040=



000
FTUS43 KDTX 221700
TAFFNT
TAF
KFNT 221728Z 2218/2318 21012G20KT P6SM SCT200
     FM230100 24009KT P6SM SCT060 SCT100 BKN200 PROB30 2303/2306
      TSRA BKN035 OVC060CB
     FM230900 32012KT P6SM OVC020
     FM231600 35010KT P6SM OVC040=



000
FTUS43 KDTX 221700
TAFDET
TAF
KDET 221728Z 2218/2318 22011G17KT P6SM SKC
     FM230100 23012KT P6SM SCT060 BKN100 PROB30 2305/2308 TSRA
      BKN035 OVC060CB
     FM231200 32012KT P6SM OVC020
     FM231600 35010KT P6SM OVC040=



000
FTUS43 KDTX 221700
TAFMBS
TAF
KMBS 221728Z 2218/2318 23013G20KT P6SM SCT050 SCT080
     FM230100 24012KT P6SM SCT060 BKN100 PROB30 2303/2305 TSRA
      BKN035 OVC060CB
     FM230800 32012KT P6SM OVC020
     FM231600 35010KT P6SM OVC040=



000
FTUS43 KDTX 221500 AAA
TAFDTW
TAF AMD
KDTW 221502Z 2215/2318 20010KT P6SM SKC
     FM222000 21011G17KT P6SM SCT200 PROB30 2305/2308 TSRA BKN035
      OVC060CB
     FM230900 29010KT P6SM SCT025 OVC080
     FM231200 32012KT P6SM OVC020
     FM231500 35010KT P6SM OVC040=



000
FTUS43 KDTX 221100
TAFFNT
TAF
KFNT 221122Z 2212/2312 19008KT P6SM SKC
     FM221700 21012G20KT P6SM SCT200
     FM230100 24009KT P6SM SCT060 SCT100 BKN200 PROB30 2303/2306 5SM
      TSRA BKN035 OVC060CB
     FM230700 32011KT P6SM OVC022=



000
FTUS43 KDTX 221100
TAFMBS
TAF
KMBS 221122Z 2212/2312 21009KT P6SM SKC
     FM221600 22014G22KT P6SM SCT200
     FM221700 23013G20KT P6SM FEW050 SCT250
     FM230100 24012KT P6SM SCT060 BKN100 PROB30 2302/2305 5SM TSRA
      BKN035 OVC060CB
     FM230600 32011KT P6SM OVC022=



000
FTUS43 KDTX 221100
TAFDET
TAF
KDET 221122Z 2212/2312 00000KT 6SM BR SKC
     FM221500 18008KT P6SM SKC
     FM221900 21011G17KT P6SM SCT200 PROB30 2306/2309 5SM TSRA
      BKN035 OVC060CB
     FM230900 30010KT P6SM SCT028 OVC080=



000
FTUS43 KDTX 221100
TAFDTW
TAF
KDTW 221122Z 2212/2318 00000KT 6SM BR SKC
     FM221500 18008KT P6SM SKC
     FM221900 21011G17KT P6SM SCT200 PROB30 2306/2309 5SM TSRA
      BKN035 OVC060CB
     FM230900 30010KT P6SM SCT028 OVC080
     FM231200 32012KT P6SM OVC025
     FM231500 35010KT P6SM OVC040=



000
FTUS43 KDTX 220800 AAA
TAFDTW
TAF AMD
KDTW 220822Z 2208/2312 00000KT 6SM BR SKC
      TEMPO 2209/2212 4SM BR
     FM221400 18007KT P6SM SKC
     FM221700 21010KT P6SM FEW050 SCT250
     FM230100 23013KT P6SM SCT100 BKN250 PROB30 2306/2309 3SM -TSRA
      OVC040CB=



000
FTUS43 KDTX 220800 AAA
TAFDET
TAF AMD
KDET 220822Z 2208/2306 16003KT P6SM SKC
     FM221700 21010KT P6SM FEW050 SCT250
     FM230100 23013KT P6SM SCT100 BKN250=



000
FTUS43 KDTX 220500
TAFDET
TAF
KDET 220529Z 2206/2306 16003KT P6SM SKC
      TEMPO 2209/2212 5SM HZ
     FM221700 21010KT P6SM FEW050 SCT250
     FM230100 23013KT P6SM SCT100 BKN250=



000
FTUS43 KDTX 220500
TAFMBS
TAF
KMBS 220529Z 2206/2306 20007KT P6SM SKC
     FM221700 23013G20KT P6SM FEW050 SCT250
     FM230100 24013KT P6SM SCT100 BKN250 PROB30 2303/2306 3SM -TSRA
      OVC040CB=



000
FTUS43 KDTX 220500
TAFFNT
TAF
KFNT 220529Z 2206/2306 20005KT P6SM SKC
     FM221700 23013G20KT P6SM FEW050 SCT250
     FM230100 23013KT P6SM SCT100 BKN250 PROB30 2304/2306 3SM -TSRA
      OVC040CB=



000
FTUS43 KDTX 220500
TAFDTW
TAF
KDTW 220529Z 2206/2312 14003KT P6SM SKC
      TEMPO 2207/2210 5SM HZ
     FM221000 00000KT 3SM BR SKC
     FM221300 18007KT P6SM SKC
     FM221700 21010KT P6SM FEW050 SCT250
     FM230100 23013KT P6SM SCT100 BKN250 PROB30 2306/2309 3SM -TSRA
      OVC040CB=



    US Dept of Commerce
    National Oceanic and Atmospheric Administration
    National Weather Service
    1325 East West Highway
    Silver Spring, MD 20910
    Page Author: NWS Internet Services Team
Disclaimer
Information Quality
Credits
Glossary
Privacy Policy
Freedom of Information Act (FOIA)
About Us
Career Opportunities